sensor_id;sensor_type;location;lat;lon;timestamp;temperature;humidity
71382;DHT22;60099;45.660;13.804;2022-09-13T00:00:49;20.30;56.50
71382;DHT22;60099;45.660;13.804;2022-09-13T00:03:16;20.30;56.80
71382;DHT22;60099;45.660;13.804;2022-09-13T00:05:42;20.20;57.40
71382;DHT22;60099;45.660;13.804;2022-09-13T00:08:08;20.20;57.60
71382;DHT22;60099;45.660;13.804;2022-09-13T00:10:36;20.20;57.50
71382;DHT22;60099;45.660;13.804;2022-09-13T00:13:03;20.10;58.00
71382;DHT22;60099;45.660;13.804;2022-09-13T00:15:29;20.30;58.00
71382;DHT22;60099;45.660;13.804;2022-09-13T00:17:55;20.50;57.40
71382;DHT22;60099;45.660;13.804;2022-09-13T00:20:21;20.60;57.40
71382;DHT22;60099;45.660;13.804;2022-09-13T00:22:47;20.70;56.70
71382;DHT22;60099;45.660;13.804;2022-09-13T00:25:12;20.70;57.40
71382;DHT22;60099;45.660;13.804;2022-09-13T00:27:38;20.70;58.10
71382;DHT22;60099;45.660;13.804;2022-09-13T00:30:05;20.80;57.80
71382;DHT22;60099;45.660;13.804;2022-09-13T00:32:33;20.80;57.30
71382;DHT22;60099;45.660;13.804;2022-09-13T00:35:00;20.30;58.60
71382;DHT22;60099;45.660;13.804;2022-09-13T00:37:26;20.00;59.60
71382;DHT22;60099;45.660;13.804;2022-09-13T00:39:52;19.80;60.90
71382;DHT22;60099;45.660;13.804;2022-09-13T00:42:27;19.80;61.00
71382;DHT22;60099;45.660;13.804;2022-09-13T00:45:00;19.90;60.90
71382;DHT22;60099;45.660;13.804;2022-09-13T00:47:33;20.00;60.90
71382;DHT22;60099;45.660;13.804;2022-09-13T00:50:30;19.90;62.20
71382;DHT22;60099;45.660;13.804;2022-09-13T00:55:33;19.70;62.40
71382;DHT22;60099;45.660;13.804;2022-09-13T00:58:05;19.70;62.20
71382;DHT22;60099;45.660;13.804;2022-09-13T01:00:33;19.90;61.70
71382;DHT22;60099;45.660;13.804;2022-09-13T01:03:02;19.90;61.50
71382;DHT22;60099;45.660;13.804;2022-09-13T01:05:35;20.00;61.60
71382;DHT22;60099;45.660;13.804;2022-09-13T01:08:03;20.10;61.10
71382;DHT22;60099;45.660;13.804;2022-09-13T01:10:37;20.20;60.50
71382;DHT22;60099;45.660;13.804;2022-09-13T01:13:25;20.20;60.40
71382;DHT22;60099;45.660;13.804;2022-09-13T01:15:53;20.10;60.90
71382;DHT22;60099;45.660;13.804;2022-09-13T01:18:19;19.80;62.60
71382;DHT22;60099;45.660;13.804;2022-09-13T01:26:28;19.70;63.70
71382;DHT22;60099;45.660;13.804;2022-09-13T01:35:10;19.90;64.30
71382;DHT22;60099;45.660;13.804;2022-09-13T01:43:51;19.90;64.00
71382;DHT22;60099;45.660;13.804;2022-09-13T01:46:38;19.80;65.10
71382;DHT22;60099;45.660;13.804;2022-09-13T02:00:13;19.60;64.60
71382;DHT22;60099;45.660;13.804;2022-09-13T02:03:04;19.60;64.50
71382;DHT22;60099;45.660;13.804;2022-09-13T02:05:46;19.60;64.90
71382;DHT22;60099;45.660;13.804;2022-09-13T02:08:18;19.90;64.50
71382;DHT22;60099;45.660;13.804;2022-09-13T02:11:08;19.90;64.20
71382;DHT22;60099;45.660;13.804;2022-09-13T02:13:46;20.00;64.30
71382;DHT22;60099;45.660;13.804;2022-09-13T02:16:27;20.20;64.40
71382;DHT22;60099;45.660;13.804;2022-09-13T02:18:58;20.30;64.40
71382;DHT22;60099;45.660;13.804;2022-09-13T02:21:29;20.30;63.40
71382;DHT22;60099;45.660;13.804;2022-09-13T02:24:04;20.00;63.80
71382;DHT22;60099;45.660;13.804;2022-09-13T02:26:33;19.90;65.60
71382;DHT22;60099;45.660;13.804;2022-09-13T02:29:02;19.90;66.60
71382;DHT22;60099;45.660;13.804;2022-09-13T02:31:38;19.90;67.10
71382;DHT22;60099;45.660;13.804;2022-09-13T02:34:11;19.90;66.60
71382;DHT22;60099;45.660;13.804;2022-09-13T02:36:41;20.00;67.10
71382;DHT22;60099;45.660;13.804;2022-09-13T02:39:14;20.20;67.70
71382;DHT22;60099;45.660;13.804;2022-09-13T02:42:04;20.10;68.70
71382;DHT22;60099;45.660;13.804;2022-09-13T02:44:44;20.00;69.70
71382;DHT22;60099;45.660;13.804;2022-09-13T02:50:30;20.30;69.30
71382;DHT22;60099;45.660;13.804;2022-09-13T03:01:32;20.40;69.90
71382;DHT22;60099;45.660;13.804;2022-09-13T03:03:59;20.30;70.40
71382;DHT22;60099;45.660;13.804;2022-09-13T03:06:27;20.10;69.30
71382;DHT22;60099;45.660;13.804;2022-09-13T03:08:56;20.00;69.30
71382;DHT22;60099;45.660;13.804;2022-09-13T03:25:21;19.40;75.50
71382;DHT22;60099;45.660;13.804;2022-09-13T03:27:59;19.60;74.70
71382;DHT22;60099;45.660;13.804;2022-09-13T03:30:27;19.70;74.50
71382;DHT22;60099;45.660;13.804;2022-09-13T03:33:11;19.80;74.50
71382;DHT22;60099;45.660;13.804;2022-09-13T03:38:23;20.10;72.50
71382;DHT22;60099;45.660;13.804;2022-09-13T03:40:59;19.90;73.50
71382;DHT22;60099;45.660;13.804;2022-09-13T03:43:37;20.00;72.40
71382;DHT22;60099;45.660;13.804;2022-09-13T03:46:10;19.60;72.90
71382;DHT22;60099;45.660;13.804;2022-09-13T03:48:38;19.50;74.30
71382;DHT22;60099;45.660;13.804;2022-09-13T03:51:06;19.20;74.90
71382;DHT22;60099;45.660;13.804;2022-09-13T03:53:36;19.20;76.30
71382;DHT22;60099;45.660;13.804;2022-09-13T03:56:14;19.20;76.60
71382;DHT22;60099;45.660;13.804;2022-09-13T03:58:40;19.20;76.40
71382;DHT22;60099;45.660;13.804;2022-09-13T04:01:06;19.30;76.10
71382;DHT22;60099;45.660;13.804;2022-09-13T04:03:35;19.30;75.40
71382;DHT22;60099;45.660;13.804;2022-09-13T04:06:01;19.30;75.40
71382;DHT22;60099;45.660;13.804;2022-09-13T04:08:27;19.30;75.20
71382;DHT22;60099;45.660;13.804;2022-09-13T04:10:52;19.20;76.60
71382;DHT22;60099;45.660;13.804;2022-09-13T04:13:19;19.30;76.20
71382;DHT22;60099;45.660;13.804;2022-09-13T04:15:47;19.40;75.90
71382;DHT22;60099;45.660;13.804;2022-09-13T04:18:15;19.50;75.60
71382;DHT22;60099;45.660;13.804;2022-09-13T04:20:42;19.70;75.40
71382;DHT22;60099;45.660;13.804;2022-09-13T04:23:10;19.50;76.40
71382;DHT22;60099;45.660;13.804;2022-09-13T04:25:39;19.50;76.90
71382;DHT22;60099;45.660;13.804;2022-09-13T04:28:05;19.50;76.70
71382;DHT22;60099;45.660;13.804;2022-09-13T04:30:31;19.60;76.00
71382;DHT22;60099;45.660;13.804;2022-09-13T04:32:57;19.50;75.60
71382;DHT22;60099;45.660;13.804;2022-09-13T04:35:24;19.60;75.30
71382;DHT22;60099;45.660;13.804;2022-09-13T04:37:50;19.70;74.50
71382;DHT22;60099;45.660;13.804;2022-09-13T04:40:16;19.50;76.70
71382;DHT22;60099;45.660;13.804;2022-09-13T04:42:43;19.30;80.00
71382;DHT22;60099;45.660;13.804;2022-09-13T04:45:09;19.20;81.20
71382;DHT22;60099;45.660;13.804;2022-09-13T04:47:35;19.30;81.60
71382;DHT22;60099;45.660;13.804;2022-09-13T04:50:01;19.40;80.20
71382;DHT22;60099;45.660;13.804;2022-09-13T04:52:27;19.40;80.10
71382;DHT22;60099;45.660;13.804;2022-09-13T04:54:53;19.40;80.40
71382;DHT22;60099;45.660;13.804;2022-09-13T04:57:19;19.40;81.10
71382;DHT22;60099;45.660;13.804;2022-09-13T04:59:44;19.50;80.80
71382;DHT22;60099;45.660;13.804;2022-09-13T05:02:10;19.60;80.10
71382;DHT22;60099;45.660;13.804;2022-09-13T05:04:36;19.70;79.40
71382;DHT22;60099;45.660;13.804;2022-09-13T05:07:02;19.80;79.00
71382;DHT22;60099;45.660;13.804;2022-09-13T05:09:27;19.90;78.70
71382;DHT22;60099;45.660;13.804;2022-09-13T05:11:53;20.00;77.80
71382;DHT22;60099;45.660;13.804;2022-09-13T05:14:19;20.00;77.60
71382;DHT22;60099;45.660;13.804;2022-09-13T05:16:45;19.80;78.80
71382;DHT22;60099;45.660;13.804;2022-09-13T05:19:11;19.70;80.20
71382;DHT22;60099;45.660;13.804;2022-09-13T05:21:37;19.70;81.00
71382;DHT22;60099;45.660;13.804;2022-09-13T05:24:03;19.80;80.70
71382;DHT22;60099;45.660;13.804;2022-09-13T05:26:30;19.90;81.00
71382;DHT22;60099;45.660;13.804;2022-09-13T05:28:57;20.00;80.80
71382;DHT22;60099;45.660;13.804;2022-09-13T05:31:32;20.10;80.30
71382;DHT22;60099;45.660;13.804;2022-09-13T05:34:01;20.00;80.00
71382;DHT22;60099;45.660;13.804;2022-09-13T05:36:28;19.90;80.10
71382;DHT22;60099;45.660;13.804;2022-09-13T05:38:54;20.00;79.50
71382;DHT22;60099;45.660;13.804;2022-09-13T05:41:20;20.00;79.10
71382;DHT22;60099;45.660;13.804;2022-09-13T05:43:46;20.10;79.20
71382;DHT22;60099;45.660;13.804;2022-09-13T05:46:14;20.00;79.10
71382;DHT22;60099;45.660;13.804;2022-09-13T05:48:41;20.00;79.20
71382;DHT22;60099;45.660;13.804;2022-09-13T05:53:41;20.10;80.20
71382;DHT22;60099;45.660;13.804;2022-09-13T05:56:12;20.20;80.50
71382;DHT22;60099;45.660;13.804;2022-09-13T05:58:40;20.20;80.60
71382;DHT22;60099;45.660;13.804;2022-09-13T06:01:06;20.30;79.20
71382;DHT22;60099;45.660;13.804;2022-09-13T06:03:32;20.30;79.70
71382;DHT22;60099;45.660;13.804;2022-09-13T06:05:58;20.40;79.40
71382;DHT22;60099;45.660;13.804;2022-09-13T06:08:25;20.50;78.40
71382;DHT22;60099;45.660;13.804;2022-09-13T06:13:21;20.50;79.00
71382;DHT22;60099;45.660;13.804;2022-09-13T06:15:47;20.60;80.00
71382;DHT22;60099;45.660;13.804;2022-09-13T06:18:13;20.60;80.50
71382;DHT22;60099;45.660;13.804;2022-09-13T06:20:38;20.60;80.50
71382;DHT22;60099;45.660;13.804;2022-09-13T06:23:04;20.80;80.30
71382;DHT22;60099;45.660;13.804;2022-09-13T06:25:30;20.90;80.40
71382;DHT22;60099;45.660;13.804;2022-09-13T06:27:55;21.00;80.50
71382;DHT22;60099;45.660;13.804;2022-09-13T06:30:21;21.00;80.10
71382;DHT22;60099;45.660;13.804;2022-09-13T06:32:47;21.10;80.10
71382;DHT22;60099;45.660;13.804;2022-09-13T06:35:12;21.20;80.20
71382;DHT22;60099;45.660;13.804;2022-09-13T06:37:38;21.30;79.60
71382;DHT22;60099;45.660;13.804;2022-09-13T06:40:04;21.20;79.80
71382;DHT22;60099;45.660;13.804;2022-09-13T06:42:33;21.30;81.30
71382;DHT22;60099;45.660;13.804;2022-09-13T06:44:59;21.20;80.00
71382;DHT22;60099;45.660;13.804;2022-09-13T06:47:25;21.30;79.90
71382;DHT22;60099;45.660;13.804;2022-09-13T06:49:51;21.30;79.00
71382;DHT22;60099;45.660;13.804;2022-09-13T06:52:16;21.40;78.50
71382;DHT22;60099;45.660;13.804;2022-09-13T06:54:42;21.50;78.50
71382;DHT22;60099;45.660;13.804;2022-09-13T06:57:08;21.60;78.40
71382;DHT22;60099;45.660;13.804;2022-09-13T06:59:34;21.70;77.80
71382;DHT22;60099;45.660;13.804;2022-09-13T07:02:00;21.80;77.10
71382;DHT22;60099;45.660;13.804;2022-09-13T07:04:25;21.90;75.70
71382;DHT22;60099;45.660;13.804;2022-09-13T07:06:57;21.90;76.30
71382;DHT22;60099;45.660;13.804;2022-09-13T07:09:22;21.80;74.50
71382;DHT22;60099;45.660;13.804;2022-09-13T07:11:51;21.90;74.20
71382;DHT22;60099;45.660;13.804;2022-09-13T07:14:25;22.00;73.60
71382;DHT22;60099;45.660;13.804;2022-09-13T07:16:51;22.00;73.30
71382;DHT22;60099;45.660;13.804;2022-09-13T07:19:22;22.00;72.40
71382;DHT22;60099;45.660;13.804;2022-09-13T07:21:49;22.00;75.30
71382;DHT22;60099;45.660;13.804;2022-09-13T07:24:18;22.10;73.50
71382;DHT22;60099;45.660;13.804;2022-09-13T07:26:45;22.10;73.40
71382;DHT22;60099;45.660;13.804;2022-09-13T07:29:13;22.20;73.40
71382;DHT22;60099;45.660;13.804;2022-09-13T07:31:42;22.30;74.40
71382;DHT22;60099;45.660;13.804;2022-09-13T07:34:22;22.40;73.10
71382;DHT22;60099;45.660;13.804;2022-09-13T07:36:49;22.50;72.50
71382;DHT22;60099;45.660;13.804;2022-09-13T07:39:15;22.60;71.30
71382;DHT22;60099;45.660;13.804;2022-09-13T07:41:42;22.60;71.10
71382;DHT22;60099;45.660;13.804;2022-09-13T07:44:11;22.70;70.20
71382;DHT22;60099;45.660;13.804;2022-09-13T07:46:38;22.80;68.50
71382;DHT22;60099;45.660;13.804;2022-09-13T07:49:06;22.80;68.70
71382;DHT22;60099;45.660;13.804;2022-09-13T07:51:34;22.90;66.60
71382;DHT22;60099;45.660;13.804;2022-09-13T07:54:03;22.90;66.60
71382;DHT22;60099;45.660;13.804;2022-09-13T07:56:35;23.00;68.00
71382;DHT22;60099;45.660;13.804;2022-09-13T07:59:02;23.00;65.80
71382;DHT22;60099;45.660;13.804;2022-09-13T08:01:34;23.10;65.40
71382;DHT22;60099;45.660;13.804;2022-09-13T08:04:02;23.20;65.50
71382;DHT22;60099;45.660;13.804;2022-09-13T08:09:34;23.30;67.80
71382;DHT22;60099;45.660;13.804;2022-09-13T08:12:00;23.30;66.00
71382;DHT22;60099;45.660;13.804;2022-09-13T08:14:26;23.40;66.10
71382;DHT22;60099;45.660;13.804;2022-09-13T08:16:55;23.40;64.50
71382;DHT22;60099;45.660;13.804;2022-09-13T08:19:21;23.40;64.50
71382;DHT22;60099;45.660;13.804;2022-09-13T08:21:47;23.40;65.10
71382;DHT22;60099;45.660;13.804;2022-09-13T08:24:20;23.40;64.10
71382;DHT22;60099;45.660;13.804;2022-09-13T08:26:46;23.40;64.90
71382;DHT22;60099;45.660;13.804;2022-09-13T08:29:13;23.40;65.10
71382;DHT22;60099;45.660;13.804;2022-09-13T08:31:39;23.50;64.40
71382;DHT22;60099;45.660;13.804;2022-09-13T08:34:09;23.50;63.90
71382;DHT22;60099;45.660;13.804;2022-09-13T08:36:36;23.60;63.40
71382;DHT22;60099;45.660;13.804;2022-09-13T08:39:01;23.70;62.90
71382;DHT22;60099;45.660;13.804;2022-09-13T08:44:35;23.90;60.60
71382;DHT22;60099;45.660;13.804;2022-09-13T08:49:45;24.20;61.80
71382;DHT22;60099;45.660;13.804;2022-09-13T08:52:34;24.30;59.70
71382;DHT22;60099;45.660;13.804;2022-09-13T09:04:34;24.30;59.60
71382;DHT22;60099;45.660;13.804;2022-09-13T09:09:36;24.40;59.10
71382;DHT22;60099;45.660;13.804;2022-09-13T09:14:41;24.40;58.70
71382;DHT22;60099;45.660;13.804;2022-09-13T09:17:22;24.30;58.90
71382;DHT22;60099;45.660;13.804;2022-09-13T09:19:58;24.40;60.10
71382;DHT22;60099;45.660;13.804;2022-09-13T09:22:33;24.40;60.10
71382;DHT22;60099;45.660;13.804;2022-09-13T09:25:00;24.40;58.60
71382;DHT22;60099;45.660;13.804;2022-09-13T09:27:33;24.50;58.90
71382;DHT22;60099;45.660;13.804;2022-09-13T09:30:00;24.50;59.10
71382;DHT22;60099;45.660;13.804;2022-09-13T09:33:07;24.60;58.10
71382;DHT22;60099;45.660;13.804;2022-09-13T09:38:39;24.90;59.40
71382;DHT22;60099;45.660;13.804;2022-09-13T09:41:27;25.20;57.80
71382;DHT22;60099;45.660;13.804;2022-09-13T09:47:05;25.50;57.50
71382;DHT22;60099;45.660;13.804;2022-09-13T09:49:39;25.50;56.60
71382;DHT22;60099;45.660;13.804;2022-09-13T09:58:00;25.70;56.70
71382;DHT22;60099;45.660;13.804;2022-09-13T10:00:29;25.80;57.40
71382;DHT22;60099;45.660;13.804;2022-09-13T10:02:58;25.70;56.60
71382;DHT22;60099;45.660;13.804;2022-09-13T10:05:26;25.80;56.90
71382;DHT22;60099;45.660;13.804;2022-09-13T10:07:56;25.90;56.90
71382;DHT22;60099;45.660;13.804;2022-09-13T10:13:01;26.00;55.70
71382;DHT22;60099;45.660;13.804;2022-09-13T10:15:30;26.00;55.60
71382;DHT22;60099;45.660;13.804;2022-09-13T10:18:03;26.10;56.40
71382;DHT22;60099;45.660;13.804;2022-09-13T10:20:30;26.00;55.50
71382;DHT22;60099;45.660;13.804;2022-09-13T10:25:36;26.00;57.10
71382;DHT22;60099;45.660;13.804;2022-09-13T10:28:04;26.00;57.90
71382;DHT22;60099;45.660;13.804;2022-09-13T10:30:56;25.90;56.10
71382;DHT22;60099;45.660;13.804;2022-09-13T10:33:43;25.90;57.40
71382;DHT22;60099;45.660;13.804;2022-09-13T10:36:16;25.80;56.70
71382;DHT22;60099;45.660;13.804;2022-09-13T10:38:55;25.80;55.10
71382;DHT22;60099;45.660;13.804;2022-09-13T10:41:25;25.80;55.80
71382;DHT22;60099;45.660;13.804;2022-09-13T10:43:59;25.90;57.50
71382;DHT22;60099;45.660;13.804;2022-09-13T10:46:29;25.80;55.30
71382;DHT22;60099;45.660;13.804;2022-09-13T10:49:02;25.90;56.40
71382;DHT22;60099;45.660;13.804;2022-09-13T10:51:34;25.90;56.80
71382;DHT22;60099;45.660;13.804;2022-09-13T10:54:19;26.10;56.30
71382;DHT22;60099;45.660;13.804;2022-09-13T10:56:47;26.20;54.60
71382;DHT22;60099;45.660;13.804;2022-09-13T10:59:25;26.20;53.60
71382;DHT22;60099;45.660;13.804;2022-09-13T11:02:09;26.30;53.90
71382;DHT22;60099;45.660;13.804;2022-09-13T11:19:12;26.50;52.00
71382;DHT22;60099;45.660;13.804;2022-09-13T11:32:53;26.70;52.20
71382;DHT22;60099;45.660;13.804;2022-09-13T11:40:36;26.70;52.70
71382;DHT22;60099;45.660;13.804;2022-09-13T11:43:27;26.70;51.80
71382;DHT22;60099;45.660;13.804;2022-09-13T11:46:10;26.80;52.40
71382;DHT22;60099;45.660;13.804;2022-09-13T11:51:25;26.90;54.10
71382;DHT22;60099;45.660;13.804;2022-09-13T11:54:08;26.90;53.70
71382;DHT22;60099;45.660;13.804;2022-09-13T11:56:38;26.90;55.30
71382;DHT22;60099;45.660;13.804;2022-09-13T12:01:58;26.80;55.90
71382;DHT22;60099;45.660;13.804;2022-09-13T12:04:37;26.70;55.80
71382;DHT22;60099;45.660;13.804;2022-09-13T12:07:11;26.70;56.50
71382;DHT22;60099;45.660;13.804;2022-09-13T12:09:52;26.70;56.80
71382;DHT22;60099;45.660;13.804;2022-09-13T12:12:27;26.60;55.50
71382;DHT22;60099;45.660;13.804;2022-09-13T12:15:07;26.50;56.10
71382;DHT22;60099;45.660;13.804;2022-09-13T12:17:45;26.40;57.30
71382;DHT22;60099;45.660;13.804;2022-09-13T12:20:34;26.60;56.90
71382;DHT22;60099;45.660;13.804;2022-09-13T12:23:05;26.70;57.10
71382;DHT22;60099;45.660;13.804;2022-09-13T12:26:02;26.70;57.30
71382;DHT22;60099;45.660;13.804;2022-09-13T12:28:41;26.80;57.40
71382;DHT22;60099;45.660;13.804;2022-09-13T12:31:20;26.90;57.10
71382;DHT22;60099;45.660;13.804;2022-09-13T12:33:47;27.10;56.70
71382;DHT22;60099;45.660;13.804;2022-09-13T12:52:32;27.00;57.30
71382;DHT22;60099;45.660;13.804;2022-09-13T13:04:16;27.00;57.20
71382;DHT22;60099;45.660;13.804;2022-09-13T13:06:53;26.80;56.30
71382;DHT22;60099;45.660;13.804;2022-09-13T13:09:44;26.90;56.60
71382;DHT22;60099;45.660;13.804;2022-09-13T13:12:32;27.00;55.80
71382;DHT22;60099;45.660;13.804;2022-09-13T13:17:53;26.90;53.60
71382;DHT22;60099;45.660;13.804;2022-09-13T13:23:15;27.00;57.40
71382;DHT22;60099;45.660;13.804;2022-09-13T13:33:54;26.80;58.00
71382;DHT22;60099;45.660;13.804;2022-09-13T13:36:30;26.80;58.40
71382;DHT22;60099;45.660;13.804;2022-09-13T13:39:00;26.90;59.10
71382;DHT22;60099;45.660;13.804;2022-09-13T13:46:46;26.90;55.60
71382;DHT22;60099;45.660;13.804;2022-09-13T13:57:27;26.60;59.30
71382;DHT22;60099;45.660;13.804;2022-09-13T14:02:45;26.50;58.40
71382;DHT22;60099;45.660;13.804;2022-09-13T14:14:14;26.20;64.30
71382;DHT22;60099;45.660;13.804;2022-09-13T14:19:28;26.20;65.80
71382;DHT22;60099;45.660;13.804;2022-09-13T14:24:39;26.10;65.20
71382;DHT22;60099;45.660;13.804;2022-09-13T14:27:17;26.00;64.80
71382;DHT22;60099;45.660;13.804;2022-09-13T14:29:45;26.00;66.10
71382;DHT22;60099;45.660;13.804;2022-09-13T14:32:16;26.00;64.80
71382;DHT22;60099;45.660;13.804;2022-09-13T14:35:03;26.10;66.90
71382;DHT22;60099;45.660;13.804;2022-09-13T14:37:33;26.10;65.80
71382;DHT22;60099;45.660;13.804;2022-09-13T14:40:23;26.10;66.00
71382;DHT22;60099;45.660;13.804;2022-09-13T14:42:51;26.20;65.50
71382;DHT22;60099;45.660;13.804;2022-09-13T14:45:28;26.10;64.70
71382;DHT22;60099;45.660;13.804;2022-09-13T14:50:32;26.00;64.30
71382;DHT22;60099;45.660;13.804;2022-09-13T14:53:10;25.90;63.70
71382;DHT22;60099;45.660;13.804;2022-09-13T14:55:41;25.90;64.00
71382;DHT22;60099;45.660;13.804;2022-09-13T14:58:21;25.90;65.20
71382;DHT22;60099;45.660;13.804;2022-09-13T15:00:59;25.90;67.40
71382;DHT22;60099;45.660;13.804;2022-09-13T15:03:26;25.90;67.90
71382;DHT22;60099;45.660;13.804;2022-09-13T15:05:58;25.80;67.20
71382;DHT22;60099;45.660;13.804;2022-09-13T15:11:04;25.80;69.00
71382;DHT22;60099;45.660;13.804;2022-09-13T15:13:31;25.80;67.60
71382;DHT22;60099;45.660;13.804;2022-09-13T15:15:57;25.90;67.20
71382;DHT22;60099;45.660;13.804;2022-09-13T15:18:28;25.80;67.70
71382;DHT22;60099;45.660;13.804;2022-09-13T15:21:14;25.80;68.10
71382;DHT22;60099;45.660;13.804;2022-09-13T15:23:42;25.80;67.00
71382;DHT22;60099;45.660;13.804;2022-09-13T15:26:22;25.60;68.50
71382;DHT22;60099;45.660;13.804;2022-09-13T15:33:46;25.60;68.70
71382;DHT22;60099;45.660;13.804;2022-09-13T15:41:53;25.60;70.60
71382;DHT22;60099;45.660;13.804;2022-09-13T15:44:22;25.50;70.50
71382;DHT22;60099;45.660;13.804;2022-09-13T15:46:50;25.40;70.00
71382;DHT22;60099;45.660;13.804;2022-09-13T15:49:24;25.40;70.40
71382;DHT22;60099;45.660;13.804;2022-09-13T15:52:02;25.40;70.60
71382;DHT22;60099;45.660;13.804;2022-09-13T15:56:59;25.30;70.50
71382;DHT22;60099;45.660;13.804;2022-09-13T15:59:25;25.30;70.80
71382;DHT22;60099;45.660;13.804;2022-09-13T16:01:51;25.20;70.30
71382;DHT22;60099;45.660;13.804;2022-09-13T16:04:17;25.10;70.90
71382;DHT22;60099;45.660;13.804;2022-09-13T16:06:44;25.00;70.20
71382;DHT22;60099;45.660;13.804;2022-09-13T16:09:30;24.90;70.60
71382;DHT22;60099;45.660;13.804;2022-09-13T16:11:56;24.80;71.50
71382;DHT22;60099;45.660;13.804;2022-09-13T16:14:21;24.80;71.80
71382;DHT22;60099;45.660;13.804;2022-09-13T16:16:47;24.80;72.40
71382;DHT22;60099;45.660;13.804;2022-09-13T16:19:21;24.80;72.40
71382;DHT22;60099;45.660;13.804;2022-09-13T16:21:47;24.70;73.30
71382;DHT22;60099;45.660;13.804;2022-09-13T16:24:14;24.60;74.10
71382;DHT22;60099;45.660;13.804;2022-09-13T16:26:41;24.50;74.80
71382;DHT22;60099;45.660;13.804;2022-09-13T16:29:09;24.50;74.50
71382;DHT22;60099;45.660;13.804;2022-09-13T16:31:35;24.40;75.00
71382;DHT22;60099;45.660;13.804;2022-09-13T16:34:01;24.30;75.10
71382;DHT22;60099;45.660;13.804;2022-09-13T16:36:27;24.20;75.30
71382;DHT22;60099;45.660;13.804;2022-09-13T16:38:54;24.30;75.20
71382;DHT22;60099;45.660;13.804;2022-09-13T16:41:20;24.30;74.70
71382;DHT22;60099;45.660;13.804;2022-09-13T16:43:46;24.20;75.50
71382;DHT22;60099;45.660;13.804;2022-09-13T16:46:18;24.10;75.80
71382;DHT22;60099;45.660;13.804;2022-09-13T16:48:44;24.10;76.00
71382;DHT22;60099;45.660;13.804;2022-09-13T16:51:11;24.10;76.10
71382;DHT22;60099;45.660;13.804;2022-09-13T16:53:39;24.20;76.20
71382;DHT22;60099;45.660;13.804;2022-09-13T16:56:09;24.20;76.00
71382;DHT22;60099;45.660;13.804;2022-09-13T16:58:39;24.20;76.30
71382;DHT22;60099;45.660;13.804;2022-09-13T17:01:10;24.00;77.10
71382;DHT22;60099;45.660;13.804;2022-09-13T17:03:37;24.00;77.50
71382;DHT22;60099;45.660;13.804;2022-09-13T17:06:07;23.90;77.70
71382;DHT22;60099;45.660;13.804;2022-09-13T17:08:34;23.80;78.20
71382;DHT22;60099;45.660;13.804;2022-09-13T17:11:07;23.70;78.70
71382;DHT22;60099;45.660;13.804;2022-09-13T17:13:34;23.70;78.70
71382;DHT22;60099;45.660;13.804;2022-09-13T17:16:00;23.60;79.40
71382;DHT22;60099;45.660;13.804;2022-09-13T17:18:26;23.50;79.80
71382;DHT22;60099;45.660;13.804;2022-09-13T17:20:52;23.40;80.20
71382;DHT22;60099;45.660;13.804;2022-09-13T17:23:18;23.30;80.60
71382;DHT22;60099;45.660;13.804;2022-09-13T17:25:46;23.30;80.40
71382;DHT22;60099;45.660;13.804;2022-09-13T17:28:14;23.30;80.40
71382;DHT22;60099;45.660;13.804;2022-09-13T17:30:40;23.30;80.00
71382;DHT22;60099;45.660;13.804;2022-09-13T17:33:07;23.40;79.60
71382;DHT22;60099;45.660;13.804;2022-09-13T17:35:33;23.40;79.60
71382;DHT22;60099;45.660;13.804;2022-09-13T17:37:59;23.40;79.60
71382;DHT22;60099;45.660;13.804;2022-09-13T17:40:27;23.30;80.30
71382;DHT22;60099;45.660;13.804;2022-09-13T17:42:53;23.20;81.20
71382;DHT22;60099;45.660;13.804;2022-09-13T17:45:19;23.00;81.90
71382;DHT22;60099;45.660;13.804;2022-09-13T17:47:46;22.90;83.00
71382;DHT22;60099;45.660;13.804;2022-09-13T17:50:12;22.80;82.10
71382;DHT22;60099;45.660;13.804;2022-09-13T17:52:38;22.80;82.10
71382;DHT22;60099;45.660;13.804;2022-09-13T17:55:04;22.80;81.90
71382;DHT22;60099;45.660;13.804;2022-09-13T17:57:31;22.70;81.50
71382;DHT22;60099;45.660;13.804;2022-09-13T17:59:57;22.70;81.60
71382;DHT22;60099;45.660;13.804;2022-09-13T18:02:23;22.80;80.90
71382;DHT22;60099;45.660;13.804;2022-09-13T18:04:50;22.80;80.50
71382;DHT22;60099;45.660;13.804;2022-09-13T18:07:16;22.80;80.30
71382;DHT22;60099;45.660;13.804;2022-09-13T18:09:42;22.80;80.20
71382;DHT22;60099;45.660;13.804;2022-09-13T18:12:09;22.90;79.80
71382;DHT22;60099;45.660;13.804;2022-09-13T18:14:36;22.90;79.60
71382;DHT22;60099;45.660;13.804;2022-09-13T18:17:03;22.80;80.00
71382;DHT22;60099;45.660;13.804;2022-09-13T18:19:35;22.70;79.40
71382;DHT22;60099;45.660;13.804;2022-09-13T18:22:01;22.50;80.30
71382;DHT22;60099;45.660;13.804;2022-09-13T18:24:26;22.30;80.50
71382;DHT22;60099;45.660;13.804;2022-09-13T18:26:52;22.30;80.50
71382;DHT22;60099;45.660;13.804;2022-09-13T18:29:18;22.30;80.70
71382;DHT22;60099;45.660;13.804;2022-09-13T18:31:44;22.20;79.50
71382;DHT22;60099;45.660;13.804;2022-09-13T18:34:11;22.20;79.50
71382;DHT22;60099;45.660;13.804;2022-09-13T18:36:38;22.20;79.50
71382;DHT22;60099;45.660;13.804;2022-09-13T18:39:05;22.10;79.40
71382;DHT22;60099;45.660;13.804;2022-09-13T18:41:34;22.10;79.10
71382;DHT22;60099;45.660;13.804;2022-09-13T18:44:00;22.10;79.30
71382;DHT22;60099;45.660;13.804;2022-09-13T18:46:28;22.10;79.60
71382;DHT22;60099;45.660;13.804;2022-09-13T18:48:57;22.10;79.30
71382;DHT22;60099;45.660;13.804;2022-09-13T18:51:29;22.10;79.20
71382;DHT22;60099;45.660;13.804;2022-09-13T18:53:56;22.20;78.60
71382;DHT22;60099;45.660;13.804;2022-09-13T18:56:23;22.40;77.90
71382;DHT22;60099;45.660;13.804;2022-09-13T18:58:50;22.40;77.70
71382;DHT22;60099;45.660;13.804;2022-09-13T19:01:24;22.40;77.40
71382;DHT22;60099;45.660;13.804;2022-09-13T19:03:56;22.20;78.60
71382;DHT22;60099;45.660;13.804;2022-09-13T19:06:23;22.10;79.40
71382;DHT22;60099;45.660;13.804;2022-09-13T19:08:50;22.00;79.90
71382;DHT22;60099;45.660;13.804;2022-09-13T19:11:18;22.00;80.20
71382;DHT22;60099;45.660;13.804;2022-09-13T19:13:44;22.00;80.50
71382;DHT22;60099;45.660;13.804;2022-09-13T19:16:12;21.80;81.20
71382;DHT22;60099;45.660;13.804;2022-09-13T19:18:40;21.80;81.80
71382;DHT22;60099;45.660;13.804;2022-09-13T19:23:35;21.80;82.30
71382;DHT22;60099;45.660;13.804;2022-09-13T19:26:09;21.90;81.90